Aérodrome :
LOGIN :

S'inscrire | Disclaimer

   EN    FR    IT 

 










Légende :    VFR   VFR Marginal   IFR   IFR Intensif   IFR Très Intensif
Visi : 
Plafond : 
>= 8 km
>= 3000ft
5 à 8 km
1000 à 3000 ft
1500m à 5 km
500 à 1000 ft
800 à 1500m
200 à 500 ft
< 800m
< 200 ft
Symboles :   Orages  Brouillard  Fortes neiges  Fortes précipitations  Vent > 20 kt
SIGMETs :   Divers  Orages  Givrage  Turbulence  Onde Orograph.  Cendres Volcan.






- Altitude de l'aérodrome : 177 ft
- Code IATA : AYT


LTAI - Antalya

DERNIER METAR :
  • 200220Z 31007KT 290V360 CAVOK 01/M11 Q1026 NOSIG

METARs EXPIRÉS :
  • 200201Z 05006KT CAVOK 01/M11 Q1027 WS ALL RWY NOSIG
  • 200120Z 02007KT CAVOK 01/M11 Q1027 NOSIG RMK RWY18C 34010KT RWY36R 35006KT RWY18L 36011KT
  • 200050Z 32009KT CAVOK 01/M11 Q1027 NOSIG RMK RWY18C 35013KT RWY36R 35008KT RWY18L 35010KT
  • 200020Z 35015KT CAVOK 01/M11 Q1027 NOSIG RMK RWY18C 35012KT RWY36R 35013KT RWY18L 35012KT
  • 192350Z 33012KT CAVOK 02/M12 Q1027 NOSIG RMK RWY18C 34017KT RWY36R 35013KT RWY18L 35011KT

TAF TAF LTAI
Valide du 20 à 00h jusqu'au 21 à 00h UTC


192240Z 2000/2024 34015G25KT CAVOK
BECMG 2010/2014 34007KT



MET'MAP, la Météo Aéronautique d'un coup d'oeil ! - Copyright ORBIFLY Décembre 2007 - Disclaimer

ORBIFLY MET'MAP TEAM :

Programmation & Développement : Alexandra Zaïnal
Sur une idée originale de : Baudouin d'Aumeries
Assistance à la programmation : Marc-Olivier Méhu
Soutien technique & logistique : Manuel Goepfert

Contact : metmap@orbifly.com




SOURCES & CREDITS :

   NOAA